sensor_id;sensor_type;location;lat;lon;timestamp;pressure;altitude;pressure_sealevel;temperature;humidity
49813;BME280;35706;52.100;5.056;2023-04-03T00:00:05;103014.97;;;7.87;58.14
49813;BME280;35706;52.100;5.056;2023-04-03T00:01:05;103015.97;;;7.84;58.06
49813;BME280;35706;52.100;5.056;2023-04-03T00:02:06;103014.13;;;7.86;57.66
49813;BME280;35706;52.100;5.056;2023-04-03T00:03:06;103015.50;;;7.95;58.55
49813;BME280;35706;52.100;5.056;2023-04-03T00:04:07;103014.41;;;7.80;58.61
49813;BME280;35706;52.100;5.056;2023-04-03T00:05:07;103014.47;;;7.99;57.74
49813;BME280;35706;52.100;5.056;2023-04-03T00:06:09;103016.34;;;7.95;57.55
49813;BME280;35706;52.100;5.056;2023-04-03T00:07:10;103016.81;;;7.85;57.46
49813;BME280;35706;52.100;5.056;2023-04-03T00:08:12;103015.00;;;7.66;57.81
49813;BME280;35706;52.100;5.056;2023-04-03T00:09:13;103023.09;;;7.60;58.51
49813;BME280;35706;52.100;5.056;2023-04-03T00:10:13;103013.31;;;7.64;58.89
49813;BME280;35706;52.100;5.056;2023-04-03T00:11:15;103019.53;;;7.61;58.34
49813;BME280;35706;52.100;5.056;2023-04-03T00:12:16;103018.56;;;7.64;58.45
49813;BME280;35706;52.100;5.056;2023-04-03T00:13:16;103018.81;;;7.58;58.48
49813;BME280;35706;52.100;5.056;2023-04-03T00:14:17;103019.63;;;7.38;58.98
49813;BME280;35706;52.100;5.056;2023-04-03T00:15:17;103018.72;;;7.39;59.21
49813;BME280;35706;52.100;5.056;2023-04-03T00:16:18;103018.03;;;7.55;58.73
49813;BME280;35706;52.100;5.056;2023-04-03T00:17:18;103027.00;;;7.28;58.82
49813;BME280;35706;52.100;5.056;2023-04-03T00:18:19;103019.00;;;7.32;59.10
49813;BME280;35706;52.100;5.056;2023-04-03T00:19:19;103029.72;;;7.47;58.86
49813;BME280;35706;52.100;5.056;2023-04-03T00:20:20;103024.88;;;7.38;58.74
49813;BME280;35706;52.100;5.056;2023-04-03T00:21:20;103025.41;;;7.46;58.96
49813;BME280;35706;52.100;5.056;2023-04-03T00:22:20;103028.94;;;7.45;59.02
49813;BME280;35706;52.100;5.056;2023-04-03T00:23:21;103023.44;;;7.51;58.63
49813;BME280;35706;52.100;5.056;2023-04-03T00:24:23;103028.78;;;7.49;58.25
49813;BME280;35706;52.100;5.056;2023-04-03T00:25:24;103028.63;;;7.52;58.45
49813;BME280;35706;52.100;5.056;2023-04-03T00:26:24;103017.59;;;7.66;58.32
49813;BME280;35706;52.100;5.056;2023-04-03T00:27:25;103028.97;;;7.65;57.87
49813;BME280;35706;52.100;5.056;2023-04-03T00:28:25;103027.72;;;7.53;58.15
49813;BME280;35706;52.100;5.056;2023-04-03T00:29:26;103026.50;;;7.62;58.26
49813;BME280;35706;52.100;5.056;2023-04-03T00:30:27;103022.94;;;7.63;57.64
49813;BME280;35706;52.100;5.056;2023-04-03T00:31:27;103030.50;;;7.49;59.26
49813;BME280;35706;52.100;5.056;2023-04-03T00:32:27;103031.06;;;7.57;58.70
49813;BME280;35706;52.100;5.056;2023-04-03T00:33:28;103033.91;;;7.51;58.41
49813;BME280;35706;52.100;5.056;2023-04-03T00:34:28;103027.84;;;7.50;59.01
49813;BME280;35706;52.100;5.056;2023-04-03T00:35:28;103027.25;;;7.44;59.00
49813;BME280;35706;52.100;5.056;2023-04-03T00:36:29;103029.31;;;7.36;59.32
49813;BME280;35706;52.100;5.056;2023-04-03T00:37:29;103033.16;;;7.27;59.15
49813;BME280;35706;52.100;5.056;2023-04-03T00:38:31;103030.09;;;7.38;59.17
49813;BME280;35706;52.100;5.056;2023-04-03T00:39:31;103019.16;;;7.50;59.72
49813;BME280;35706;52.100;5.056;2023-04-03T00:40:38;103021.97;;;7.45;58.48
49813;BME280;35706;52.100;5.056;2023-04-03T00:41:39;103020.38;;;7.62;58.09
49813;BME280;35706;52.100;5.056;2023-04-03T00:42:41;103016.03;;;7.62;58.05
49813;BME280;35706;52.100;5.056;2023-04-03T00:43:42;103021.25;;;7.62;58.43
49813;BME280;35706;52.100;5.056;2023-04-03T00:45:47;103022.50;;;7.31;58.60
49813;BME280;35706;52.100;5.056;2023-04-03T00:46:48;103027.69;;;7.33;59.14
49813;BME280;35706;52.100;5.056;2023-04-03T00:47:49;103025.00;;;7.34;58.95
49813;BME280;35706;52.100;5.056;2023-04-03T00:48:50;103021.75;;;7.28;58.58
49813;BME280;35706;52.100;5.056;2023-04-03T00:49:51;103023.47;;;7.29;58.77
49813;BME280;35706;52.100;5.056;2023-04-03T00:50:52;103022.06;;;7.42;59.00
49813;BME280;35706;52.100;5.056;2023-04-03T00:51:53;103028.34;;;7.38;58.81
49813;BME280;35706;52.100;5.056;2023-04-03T00:52:55;103030.16;;;7.14;59.83
49813;BME280;35706;52.100;5.056;2023-04-03T00:54:02;103029.69;;;7.26;59.72
49813;BME280;35706;52.100;5.056;2023-04-03T00:55:08;103039.13;;;7.30;59.15
49813;BME280;35706;52.100;5.056;2023-04-03T00:56:11;103030.34;;;7.31;58.86
49813;BME280;35706;52.100;5.056;2023-04-03T00:57:13;103036.88;;;7.43;59.19
49813;BME280;35706;52.100;5.056;2023-04-03T00:58:17;103035.03;;;7.23;58.67
49813;BME280;35706;52.100;5.056;2023-04-03T00:59:23;103040.50;;;7.39;58.47
49813;BME280;35706;52.100;5.056;2023-04-03T01:00:26;103043.03;;;7.41;58.74
49813;BME280;35706;52.100;5.056;2023-04-03T01:01:28;103042.75;;;7.48;58.21
49813;BME280;35706;52.100;5.056;2023-04-03T01:02:28;103042.94;;;7.44;58.36
49813;BME280;35706;52.100;5.056;2023-04-03T01:03:29;103040.56;;;7.38;58.28
49813;BME280;35706;52.100;5.056;2023-04-03T01:05:32;103040.41;;;7.20;59.43
49813;BME280;35706;52.100;5.056;2023-04-03T01:06:36;103046.69;;;7.14;59.37
49813;BME280;35706;52.100;5.056;2023-04-03T01:07:37;103039.66;;;7.17;59.20
49813;BME280;35706;52.100;5.056;2023-04-03T01:08:41;103041.38;;;7.18;59.35
49813;BME280;35706;52.100;5.056;2023-04-03T01:09:41;103043.56;;;7.28;59.47
49813;BME280;35706;52.100;5.056;2023-04-03T01:10:42;103041.38;;;7.40;58.97
49813;BME280;35706;52.100;5.056;2023-04-03T01:11:43;103040.75;;;7.33;58.77
49813;BME280;35706;52.100;5.056;2023-04-03T01:12:45;103033.44;;;7.19;59.10
49813;BME280;35706;52.100;5.056;2023-04-03T01:13:45;103034.94;;;7.26;59.74
49813;BME280;35706;52.100;5.056;2023-04-03T01:14:48;103050.47;;;7.29;58.81
49813;BME280;35706;52.100;5.056;2023-04-03T01:15:48;103049.28;;;7.16;59.16
49813;BME280;35706;52.100;5.056;2023-04-03T01:16:53;103042.03;;;7.23;59.48
49813;BME280;35706;52.100;5.056;2023-04-03T01:17:56;103047.06;;;7.27;59.23
49813;BME280;35706;52.100;5.056;2023-04-03T01:18:57;103039.22;;;7.27;59.09
49813;BME280;35706;52.100;5.056;2023-04-03T01:22:56;103041.00;;;7.27;59.45
49813;BME280;35706;52.100;5.056;2023-04-03T01:25:18;103046.94;;;7.08;59.59
49813;BME280;35706;52.100;5.056;2023-04-03T01:26:18;103042.31;;;7.15;59.50
49813;BME280;35706;52.100;5.056;2023-04-03T01:27:18;103042.63;;;7.07;60.06
49813;BME280;35706;52.100;5.056;2023-04-03T01:29:22;103039.16;;;7.07;60.30
49813;BME280;35706;52.100;5.056;2023-04-03T01:30:26;103032.22;;;7.06;60.29
49813;BME280;35706;52.100;5.056;2023-04-03T01:32:49;103037.59;;;7.03;59.93
49813;BME280;35706;52.100;5.056;2023-04-03T01:33:50;103039.84;;;7.12;59.90
49813;BME280;35706;52.100;5.056;2023-04-03T01:34:51;103030.53;;;7.05;60.21
49813;BME280;35706;52.100;5.056;2023-04-03T01:35:51;103036.09;;;6.96;60.12
49813;BME280;35706;52.100;5.056;2023-04-03T01:36:52;103034.72;;;7.09;60.44
49813;BME280;35706;52.100;5.056;2023-04-03T01:37:53;103030.69;;;7.00;60.54
49813;BME280;35706;52.100;5.056;2023-04-03T01:38:54;103040.34;;;6.98;60.65
49813;BME280;35706;52.100;5.056;2023-04-03T01:39:54;103034.41;;;7.17;60.11
49813;BME280;35706;52.100;5.056;2023-04-03T01:40:55;103033.69;;;7.13;60.42
49813;BME280;35706;52.100;5.056;2023-04-03T01:41:55;103036.53;;;7.07;59.94
49813;BME280;35706;52.100;5.056;2023-04-03T01:42:55;103038.91;;;7.13;59.99
49813;BME280;35706;52.100;5.056;2023-04-03T01:43:56;103035.34;;;6.92;60.40
49813;BME280;35706;52.100;5.056;2023-04-03T01:44:56;103037.81;;;6.97;61.23
49813;BME280;35706;52.100;5.056;2023-04-03T01:45:56;103044.97;;;6.91;60.59
49813;BME280;35706;52.100;5.056;2023-04-03T01:46:57;103036.66;;;7.04;60.59
49813;BME280;35706;52.100;5.056;2023-04-03T01:47:57;103036.28;;;6.91;60.61
49813;BME280;35706;52.100;5.056;2023-04-03T01:48:57;103036.09;;;6.96;60.65
49813;BME280;35706;52.100;5.056;2023-04-03T01:49:58;103043.84;;;6.99;60.90
49813;BME280;35706;52.100;5.056;2023-04-03T01:50:58;103037.97;;;6.92;60.63
49813;BME280;35706;52.100;5.056;2023-04-03T01:51:58;103039.66;;;6.95;61.65
49813;BME280;35706;52.100;5.056;2023-04-03T01:52:59;103046.28;;;7.03;60.35
49813;BME280;35706;52.100;5.056;2023-04-03T01:54:00;103042.75;;;7.04;60.47
49813;BME280;35706;52.100;5.056;2023-04-03T01:55:00;103042.50;;;6.88;60.67
49813;BME280;35706;52.100;5.056;2023-04-03T01:56:00;103042.19;;;6.96;61.18
49813;BME280;35706;52.100;5.056;2023-04-03T01:57:01;103043.06;;;6.97;60.53
49813;BME280;35706;52.100;5.056;2023-04-03T01:58:01;103045.19;;;6.85;61.23
49813;BME280;35706;52.100;5.056;2023-04-03T01:59:02;103040.91;;;6.84;61.49
49813;BME280;35706;52.100;5.056;2023-04-03T02:00:03;103044.78;;;6.96;60.84
49813;BME280;35706;52.100;5.056;2023-04-03T02:01:04;103041.03;;;7.03;60.94
49813;BME280;35706;52.100;5.056;2023-04-03T02:02:04;103045.25;;;7.07;60.66
49813;BME280;35706;52.100;5.056;2023-04-03T02:03:04;103047.72;;;6.88;61.15
49813;BME280;35706;52.100;5.056;2023-04-03T02:04:05;103048.00;;;6.81;61.85
49813;BME280;35706;52.100;5.056;2023-04-03T02:05:06;103049.31;;;6.92;62.00
49813;BME280;35706;52.100;5.056;2023-04-03T02:06:07;103045.34;;;7.04;61.46
49813;BME280;35706;52.100;5.056;2023-04-03T02:07:07;103048.84;;;6.81;61.40
49813;BME280;35706;52.100;5.056;2023-04-03T02:08:07;103056.53;;;6.86;61.45
49813;BME280;35706;52.100;5.056;2023-04-03T02:09:08;103050.72;;;6.78;61.83
49813;BME280;35706;52.100;5.056;2023-04-03T02:10:08;103050.00;;;6.74;61.50
49813;BME280;35706;52.100;5.056;2023-04-03T02:11:08;103053.41;;;6.76;61.30
49813;BME280;35706;52.100;5.056;2023-04-03T02:12:09;103049.84;;;6.77;61.64
49813;BME280;35706;52.100;5.056;2023-04-03T02:13:09;103058.34;;;6.84;61.76
49813;BME280;35706;52.100;5.056;2023-04-03T02:14:10;103055.00;;;6.80;62.19
49813;BME280;35706;52.100;5.056;2023-04-03T02:15:10;103060.00;;;6.86;61.80
49813;BME280;35706;52.100;5.056;2023-04-03T02:16:11;103056.69;;;6.81;61.18
49813;BME280;35706;52.100;5.056;2023-04-03T02:17:12;103058.34;;;6.84;61.13
49813;BME280;35706;52.100;5.056;2023-04-03T02:18:13;103052.44;;;6.79;60.91
49813;BME280;35706;52.100;5.056;2023-04-03T02:19:13;103051.69;;;6.75;61.25
49813;BME280;35706;52.100;5.056;2023-04-03T02:20:14;103058.41;;;6.82;61.46
49813;BME280;35706;52.100;5.056;2023-04-03T02:21:15;103053.56;;;6.71;61.25
49813;BME280;35706;52.100;5.056;2023-04-03T02:22:15;103055.16;;;6.76;61.12
49813;BME280;35706;52.100;5.056;2023-04-03T02:23:16;103057.69;;;6.77;61.90
49813;BME280;35706;52.100;5.056;2023-04-03T02:24:16;103054.16;;;6.80;61.38
49813;BME280;35706;52.100;5.056;2023-04-03T02:25:16;103060.16;;;6.82;61.18
49813;BME280;35706;52.100;5.056;2023-04-03T02:26:17;103054.19;;;6.78;61.40
49813;BME280;35706;52.100;5.056;2023-04-03T02:27:18;103060.25;;;6.79;61.95
49813;BME280;35706;52.100;5.056;2023-04-03T02:28:18;103052.25;;;6.83;62.13
49813;BME280;35706;52.100;5.056;2023-04-03T02:29:19;103052.03;;;6.89;61.16
49813;BME280;35706;52.100;5.056;2023-04-03T02:30:19;103058.56;;;6.78;62.13
49813;BME280;35706;52.100;5.056;2023-04-03T02:31:20;103055.00;;;6.80;61.88
49813;BME280;35706;52.100;5.056;2023-04-03T02:32:21;103054.53;;;6.69;62.03
49813;BME280;35706;52.100;5.056;2023-04-03T02:33:21;103056.06;;;6.51;62.72
49813;BME280;35706;52.100;5.056;2023-04-03T02:34:21;103058.22;;;6.63;62.38
49813;BME280;35706;52.100;5.056;2023-04-03T02:35:22;103053.88;;;6.62;62.25
49813;BME280;35706;52.100;5.056;2023-04-03T02:36:22;103058.09;;;6.66;62.47
49813;BME280;35706;52.100;5.056;2023-04-03T02:37:22;103057.25;;;6.66;62.87
49813;BME280;35706;52.100;5.056;2023-04-03T02:38:23;103056.84;;;6.53;63.18
49813;BME280;35706;52.100;5.056;2023-04-03T02:39:24;103057.44;;;6.61;62.76
49813;BME280;35706;52.100;5.056;2023-04-03T02:40:24;103060.00;;;6.63;62.72
49813;BME280;35706;52.100;5.056;2023-04-03T02:41:25;103069.47;;;6.42;62.70
49813;BME280;35706;52.100;5.056;2023-04-03T02:42:28;103061.28;;;6.51;63.35
49813;BME280;35706;52.100;5.056;2023-04-03T02:43:28;103068.13;;;6.30;63.78
49813;BME280;35706;52.100;5.056;2023-04-03T02:44:29;103061.84;;;6.36;63.98
49813;BME280;35706;52.100;5.056;2023-04-03T02:45:29;103060.66;;;6.44;63.67
49813;BME280;35706;52.100;5.056;2023-04-03T02:46:29;103068.84;;;6.59;63.61
49813;BME280;35706;52.100;5.056;2023-04-03T02:47:30;103058.06;;;6.68;63.50
49813;BME280;35706;52.100;5.056;2023-04-03T02:48:30;103064.28;;;6.64;62.80
49813;BME280;35706;52.100;5.056;2023-04-03T02:49:31;103065.38;;;6.58;62.72
49813;BME280;35706;52.100;5.056;2023-04-03T02:50:31;103068.38;;;6.47;63.54
49813;BME280;35706;52.100;5.056;2023-04-03T02:51:31;103067.34;;;6.51;63.29
49813;BME280;35706;52.100;5.056;2023-04-03T02:52:32;103067.31;;;6.53;63.70
49813;BME280;35706;52.100;5.056;2023-04-03T02:53:32;103069.50;;;6.40;63.80
49813;BME280;35706;52.100;5.056;2023-04-03T02:54:32;103072.53;;;6.28;64.12
49813;BME280;35706;52.100;5.056;2023-04-03T02:55:33;103069.94;;;6.28;64.31
49813;BME280;35706;52.100;5.056;2023-04-03T02:56:33;103076.97;;;6.26;64.54
49813;BME280;35706;52.100;5.056;2023-04-03T02:57:33;103065.03;;;6.44;63.94
49813;BME280;35706;52.100;5.056;2023-04-03T02:58:34;103063.09;;;6.49;63.58
49813;BME280;35706;52.100;5.056;2023-04-03T02:59:36;103073.97;;;6.37;64.03
49813;BME280;35706;52.100;5.056;2023-04-03T03:00:40;103076.50;;;6.40;64.28
49813;BME280;35706;52.100;5.056;2023-04-03T03:01:41;103079.31;;;6.34;64.33
49813;BME280;35706;52.100;5.056;2023-04-03T03:02:41;103080.13;;;6.36;64.22
49813;BME280;35706;52.100;5.056;2023-04-03T03:03:41;103086.88;;;6.16;64.39
49813;BME280;35706;52.100;5.056;2023-04-03T03:04:41;103080.88;;;6.14;64.78
49813;BME280;35706;52.100;5.056;2023-04-03T03:05:42;103083.94;;;6.25;64.79
49813;BME280;35706;52.100;5.056;2023-04-03T03:06:43;103085.63;;;6.26;64.49
49813;BME280;35706;52.100;5.056;2023-04-03T03:07:43;103086.53;;;6.27;65.07
49813;BME280;35706;52.100;5.056;2023-04-03T03:08:43;103089.34;;;6.21;64.64
49813;BME280;35706;52.100;5.056;2023-04-03T03:09:44;103086.16;;;6.38;64.82
49813;BME280;35706;52.100;5.056;2023-04-03T03:10:45;103087.84;;;6.39;64.98
49813;BME280;35706;52.100;5.056;2023-04-03T03:11:45;103086.31;;;6.33;64.29
49813;BME280;35706;52.100;5.056;2023-04-03T03:12:46;103088.13;;;6.31;64.69
49813;BME280;35706;52.100;5.056;2023-04-03T03:13:46;103087.91;;;6.37;64.26
49813;BME280;35706;52.100;5.056;2023-04-03T03:14:47;103089.34;;;6.21;64.69
49813;BME280;35706;52.100;5.056;2023-04-03T03:15:48;103093.00;;;6.15;64.89
49813;BME280;35706;52.100;5.056;2023-04-03T03:16:48;103086.09;;;6.14;65.51
49813;BME280;35706;52.100;5.056;2023-04-03T03:17:49;103101.28;;;6.28;65.17
49813;BME280;35706;52.100;5.056;2023-04-03T03:18:49;103090.22;;;6.20;64.87
49813;BME280;35706;52.100;5.056;2023-04-03T03:19:50;103092.00;;;6.19;64.81
49813;BME280;35706;52.100;5.056;2023-04-03T03:20:55;103099.06;;;5.89;66.04
49813;BME280;35706;52.100;5.056;2023-04-03T03:21:55;103098.34;;;5.84;66.19
49813;BME280;35706;52.100;5.056;2023-04-03T03:22:56;103099.50;;;6.03;66.63
49813;BME280;35706;52.100;5.056;2023-04-03T03:23:57;103094.66;;;6.18;65.86
49813;BME280;35706;52.100;5.056;2023-04-03T03:24:57;103090.63;;;6.07;65.78
49813;BME280;35706;52.100;5.056;2023-04-03T03:26:01;103098.06;;;6.20;66.19
49813;BME280;35706;52.100;5.056;2023-04-03T03:27:01;103094.00;;;6.11;65.40
49813;BME280;35706;52.100;5.056;2023-04-03T03:28:01;103097.69;;;6.05;65.94
49813;BME280;35706;52.100;5.056;2023-04-03T03:29:02;103090.44;;;6.14;66.29
49813;BME280;35706;52.100;5.056;2023-04-03T03:30:03;103094.44;;;6.24;65.61
49813;BME280;35706;52.100;5.056;2023-04-03T03:31:05;103096.38;;;6.19;65.48
49813;BME280;35706;52.100;5.056;2023-04-03T03:32:05;103098.03;;;6.21;65.60
49813;BME280;35706;52.100;5.056;2023-04-03T03:33:06;103102.03;;;6.05;66.15
49813;BME280;35706;52.100;5.056;2023-04-03T03:34:06;103102.84;;;6.07;66.10
49813;BME280;35706;52.100;5.056;2023-04-03T03:35:07;103089.34;;;5.92;66.67
49813;BME280;35706;52.100;5.056;2023-04-03T03:36:07;103093.13;;;6.12;66.26
49813;BME280;35706;52.100;5.056;2023-04-03T03:37:08;103101.28;;;6.28;65.47
49813;BME280;35706;52.100;5.056;2023-04-03T03:38:08;103095.81;;;6.09;66.07
49813;BME280;35706;52.100;5.056;2023-04-03T03:39:09;103096.41;;;6.17;65.76
49813;BME280;35706;52.100;5.056;2023-04-03T03:40:10;103097.19;;;6.21;65.78
49813;BME280;35706;52.100;5.056;2023-04-03T03:41:12;103096.25;;;6.22;65.62
49813;BME280;35706;52.100;5.056;2023-04-03T03:42:12;103087.81;;;6.14;65.85
49813;BME280;35706;52.100;5.056;2023-04-03T03:43:13;103089.75;;;6.08;66.10
49813;BME280;35706;52.100;5.056;2023-04-03T03:44:13;103098.13;;;6.18;65.76
49813;BME280;35706;52.100;5.056;2023-04-03T03:45:13;103087.78;;;6.15;65.54
49813;BME280;35706;52.100;5.056;2023-04-03T03:46:14;103087.53;;;6.23;65.58
49813;BME280;35706;52.100;5.056;2023-04-03T03:47:14;103097.91;;;6.24;65.74
49813;BME280;35706;52.100;5.056;2023-04-03T03:48:15;103094.44;;;6.24;65.48
49813;BME280;35706;52.100;5.056;2023-04-03T03:49:15;103094.84;;;6.11;65.68
49813;BME280;35706;52.100;5.056;2023-04-03T03:50:16;103096.75;;;6.08;65.60
49813;BME280;35706;52.100;5.056;2023-04-03T03:51:16;103095.81;;;6.09;66.29
49813;BME280;35706;52.100;5.056;2023-04-03T03:52:16;103100.31;;;6.05;65.85
49813;BME280;35706;52.100;5.056;2023-04-03T03:53:17;103099.03;;;5.90;66.53
49813;BME280;35706;52.100;5.056;2023-04-03T03:54:17;103096.81;;;6.05;66.06
49813;BME280;35706;52.100;5.056;2023-04-03T03:55:18;103094.84;;;6.11;66.53
49813;BME280;35706;52.100;5.056;2023-04-03T03:56:18;103097.78;;;6.02;65.99
49813;BME280;35706;52.100;5.056;2023-04-03T03:57:19;103106.75;;;5.95;66.79
49813;BME280;35706;52.100;5.056;2023-04-03T03:58:19;103099.16;;;5.86;66.80
49813;BME280;35706;52.100;5.056;2023-04-03T03:59:20;103096.22;;;5.97;66.83
49813;BME280;35706;52.100;5.056;2023-04-03T04:00:20;103100.19;;;6.08;66.74
49813;BME280;35706;52.100;5.056;2023-04-03T04:01:21;103099.16;;;6.14;66.15
49813;BME280;35706;52.100;5.056;2023-04-03T04:02:22;103098.47;;;6.07;65.78
49813;BME280;35706;52.100;5.056;2023-04-03T04:03:22;103099.03;;;6.17;66.37
49813;BME280;35706;52.100;5.056;2023-04-03T04:04:23;103105.19;;;5.88;66.92
49813;BME280;35706;52.100;5.056;2023-04-03T04:05:23;103104.00;;;5.98;66.66
49813;BME280;35706;52.100;5.056;2023-04-03T04:06:23;103104.97;;;5.94;67.14
49813;BME280;35706;52.100;5.056;2023-04-03T04:07:24;103109.47;;;5.90;67.40
49813;BME280;35706;52.100;5.056;2023-04-03T04:08:24;103105.66;;;5.74;67.43
49813;BME280;35706;52.100;5.056;2023-04-03T04:09:25;103097.69;;;5.77;67.71
49813;BME280;35706;52.100;5.056;2023-04-03T04:10:25;103104.00;;;5.98;67.26
49813;BME280;35706;52.100;5.056;2023-04-03T04:11:26;103095.66;;;5.87;67.25
49813;BME280;35706;52.100;5.056;2023-04-03T04:12:27;103094.66;;;5.91;67.05
49813;BME280;35706;52.100;5.056;2023-04-03T04:13:28;103098.09;;;5.91;67.26
49813;BME280;35706;52.100;5.056;2023-04-03T04:14:28;103100.03;;;5.86;67.73
49813;BME280;35706;52.100;5.056;2023-04-03T04:15:28;103106.78;;;5.92;67.49
49813;BME280;35706;52.100;5.056;2023-04-03T04:16:29;103108.28;;;6.01;67.26
49813;BME280;35706;52.100;5.056;2023-04-03T04:17:29;103105.47;;;6.07;66.66
49813;BME280;35706;52.100;5.056;2023-04-03T04:18:29;103115.09;;;6.05;66.58
49813;BME280;35706;52.100;5.056;2023-04-03T04:19:30;103109.19;;;6.00;66.96
49813;BME280;35706;52.100;5.056;2023-04-03T04:20:30;103114.56;;;5.94;66.88
49813;BME280;35706;52.100;5.056;2023-04-03T04:21:30;103109.34;;;5.95;67.12
49813;BME280;35706;52.100;5.056;2023-04-03T04:22:31;103114.13;;;5.81;67.62
49813;BME280;35706;52.100;5.056;2023-04-03T04:23:31;103113.63;;;5.69;67.92
49813;BME280;35706;52.100;5.056;2023-04-03T04:24:31;103113.09;;;5.58;68.33
49813;BME280;35706;52.100;5.056;2023-04-03T04:25:32;103111.19;;;5.63;68.27
49813;BME280;35706;52.100;5.056;2023-04-03T04:26:32;103115.09;;;5.78;67.91
49813;BME280;35706;52.100;5.056;2023-04-03T04:27:33;103117.56;;;5.81;67.85
49813;BME280;35706;52.100;5.056;2023-04-03T04:28:33;103118.63;;;5.76;68.02
49813;BME280;35706;52.100;5.056;2023-04-03T04:29:34;103119.88;;;5.64;68.52
49813;BME280;35706;52.100;5.056;2023-04-03T04:30:36;103114.63;;;5.65;68.58
49813;BME280;35706;52.100;5.056;2023-04-03T04:31:36;103114.19;;;5.51;68.63
49813;BME280;35706;52.100;5.056;2023-04-03T04:32:37;103112.00;;;5.65;68.65
49813;BME280;35706;52.100;5.056;2023-04-03T04:33:37;103117.88;;;5.72;68.44
49813;BME280;35706;52.100;5.056;2023-04-03T04:34:38;103115.88;;;5.80;68.06
49813;BME280;35706;52.100;5.056;2023-04-03T04:35:38;103118.72;;;5.72;68.07
49813;BME280;35706;52.100;5.056;2023-04-03T04:36:39;103119.31;;;5.82;68.20
49813;BME280;35706;52.100;5.056;2023-04-03T04:37:39;103118.53;;;5.79;68.31
49813;BME280;35706;52.100;5.056;2023-04-03T04:38:40;103119.16;;;5.87;67.96
49813;BME280;35706;52.100;5.056;2023-04-03T04:39:41;103119.41;;;5.78;67.79
49813;BME280;35706;52.100;5.056;2023-04-03T04:40:41;103116.97;;;5.73;68.14
49813;BME280;35706;52.100;5.056;2023-04-03T04:41:41;103118.25;;;5.60;68.60
49813;BME280;35706;52.100;5.056;2023-04-03T04:42:42;103112.09;;;5.62;68.56
49813;BME280;35706;52.100;5.056;2023-04-03T04:43:42;103109.31;;;5.67;68.63
49813;BME280;35706;52.100;5.056;2023-04-03T04:44:43;103116.00;;;5.76;68.58
49813;BME280;35706;52.100;5.056;2023-04-03T04:45:43;103120.50;;;5.72;68.85
49813;BME280;35706;52.100;5.056;2023-04-03T04:46:44;103119.69;;;5.70;68.78
49813;BME280;35706;52.100;5.056;2023-04-03T04:47:45;103119.53;;;5.75;68.47
49813;BME280;35706;52.100;5.056;2023-04-03T04:48:45;103116.00;;;5.76;68.43
49813;BME280;35706;52.100;5.056;2023-04-03T04:49:46;103122.19;;;5.73;68.62
49813;BME280;35706;52.100;5.056;2023-04-03T04:50:47;103116.66;;;5.56;68.96
49813;BME280;35706;52.100;5.056;2023-04-03T04:51:48;103120.53;;;5.70;68.78
49813;BME280;35706;52.100;5.056;2023-04-03T04:52:49;103117.84;;;5.74;68.60
49813;BME280;35706;52.100;5.056;2023-04-03T04:53:49;103118.91;;;5.66;68.67
49813;BME280;35706;52.100;5.056;2023-04-03T04:54:50;103121.56;;;5.65;68.78
49813;BME280;35706;52.100;5.056;2023-04-03T04:55:51;103118.78;;;5.71;68.60
49813;BME280;35706;52.100;5.056;2023-04-03T04:56:51;103121.44;;;5.69;68.52
49813;BME280;35706;52.100;5.056;2023-04-03T04:57:52;103110.94;;;5.71;68.51
49813;BME280;35706;52.100;5.056;2023-04-03T04:58:52;103112.75;;;5.69;68.57
49813;BME280;35706;52.100;5.056;2023-04-03T04:59:52;103124.06;;;5.69;68.75
49813;BME280;35706;52.100;5.056;2023-04-03T05:01:04;103122.19;;;5.45;68.90
49813;BME280;35706;52.100;5.056;2023-04-03T05:02:05;103123.47;;;5.32;69.75
49813;BME280;35706;52.100;5.056;2023-04-03T05:03:05;103119.78;;;5.39;69.75
49813;BME280;35706;52.100;5.056;2023-04-03T05:04:06;103125.16;;;5.33;70.10
49813;BME280;35706;52.100;5.056;2023-04-03T05:05:07;103124.69;;;5.48;69.65
49813;BME280;35706;52.100;5.056;2023-04-03T05:06:07;103121.09;;;5.52;69.33
49813;BME280;35706;52.100;5.056;2023-04-03T05:07:08;103129.91;;;5.48;69.87
49813;BME280;35706;52.100;5.056;2023-04-03T05:08:08;103129.25;;;5.41;70.01
49813;BME280;35706;52.100;5.056;2023-04-03T05:09:08;103128.88;;;5.54;69.25
49813;BME280;35706;52.100;5.056;2023-04-03T05:10:09;103123.81;;;5.49;69.51
49813;BME280;35706;52.100;5.056;2023-04-03T05:11:12;103126.75;;;5.38;69.73
49813;BME280;35706;52.100;5.056;2023-04-03T05:12:13;103132.03;;;5.35;70.05
49813;BME280;35706;52.100;5.056;2023-04-03T05:13:14;103127.50;;;5.42;69.85
49813;BME280;35706;52.100;5.056;2023-04-03T05:14:14;103130.88;;;5.45;69.83
49813;BME280;35706;52.100;5.056;2023-04-03T05:15:15;103133.16;;;5.56;69.67
49813;BME280;35706;52.100;5.056;2023-04-03T05:16:15;103132.44;;;5.51;69.58
49813;BME280;35706;52.100;5.056;2023-04-03T05:17:15;103132.31;;;5.56;69.54
49813;BME280;35706;52.100;5.056;2023-04-03T05:18:16;103126.09;;;5.60;69.45
49813;BME280;35706;52.100;5.056;2023-04-03T05:19:16;103142.44;;;5.65;69.32
49813;BME280;35706;52.100;5.056;2023-04-03T05:20:16;103139.03;;;5.63;69.10
49813;BME280;35706;52.100;5.056;2023-04-03T05:21:17;103141.09;;;5.53;69.33
49813;BME280;35706;52.100;5.056;2023-04-03T05:22:18;103153.41;;;5.48;69.83
49813;BME280;35706;52.100;5.056;2023-04-03T05:23:18;103143.50;;;5.59;69.27
49813;BME280;35706;52.100;5.056;2023-04-03T05:24:19;103152.72;;;5.41;70.17
49813;BME280;35706;52.100;5.056;2023-04-03T05:25:19;103151.47;;;5.55;69.74
49813;BME280;35706;52.100;5.056;2023-04-03T05:26:19;103155.69;;;5.59;69.38
49813;BME280;35706;52.100;5.056;2023-04-03T05:27:21;103159.31;;;5.55;69.23
49813;BME280;35706;52.100;5.056;2023-04-03T05:28:23;103157.06;;;5.42;69.68
49813;BME280;35706;52.100;5.056;2023-04-03T05:29:24;103157.13;;;5.39;69.66
49813;BME280;35706;52.100;5.056;2023-04-03T05:30:24;103160.28;;;5.50;69.71